Time;durP1;ratioP1;P1;durP2;ratioP2;P2;SDS_P1;SDS_P2;PMS_P1;PMS_P2;Temp;Humidity;BMP_temperature;BMP_pressure;BME280_temperature;BME280_humidity;BME280_pressure;Samples;Min_cycle;Max_cycle;Signal;HPM_P1;HPM_P2
2022/08/12 00:43:25;;;;;;;6.30;4.10;;;20.20;67.40;;;;;;5081293;28;20039;-76
2022/08/12 00:48:36;;;;;;;10.43;4.10;;;20.10;68.00;;;;;;5081820;28;20034;-75
2022/08/12 00:51:03;;;;;;;8.38;4.25;;;20.00;68.30;;;;;;5077217;28;20288;-76
2022/08/12 00:53:29;;;;;;;9.45;4.35;;;20.00;68.80;;;;;;5073722;28;20133;-76
2022/08/12 00:55:57;;;;;;;9.20;4.30;;;19.90;69.00;;;;;;5077073;28;20055;-76
2022/08/12 00:58:29;;;;;;;5.20;4.10;;;19.90;69.20;;;;;;5080375;28;20519;-76
2022/08/12 01:01:07;;;;;;;7.95;4.38;;;19.80;69.30;;;;;;5078632;28;20718;-76
2022/08/12 01:12:08;;;;;;;9.32;3.80;;;19.60;70.00;;;;;;5072014;28;20543;-76
2022/08/12 01:14:35;;;;;;;8.23;4.03;;;19.60;70.20;;;;;;5081346;28;20920;-76
2022/08/12 01:17:01;;;;;;;6.75;3.90;;;19.70;70.40;;;;;;5081432;28;20693;-76
2022/08/12 01:19:26;;;;;;;7.25;3.97;;;19.60;70.40;;;;;;5080773;28;20111;-75
2022/08/12 01:22:04;;;;;;;6.05;3.67;;;19.60;70.50;;;;;;5075887;28;20482;-76
2022/08/12 01:24:53;;;;;;;7.07;4.32;;;19.50;70.60;;;;;;5089823;28;20032;-76
2022/08/12 01:27:21;;;;;;;6.07;3.40;;;19.50;70.60;;;;;;5083423;28;20106;-75
2022/08/12 01:29:50;;;;;;;7.50;3.80;;;19.40;70.70;;;;;;5081187;28;20429;-76
2022/08/12 01:32:19;;;;;;;5.35;3.60;;;19.40;70.80;;;;;;5076338;28;20043;-76
2022/08/12 01:35:06;;;;;;;5.28;3.22;;;19.40;71.20;;;;;;5081836;28;20023;-76
2022/08/12 01:37:54;;;;;;;6.32;4.13;;;19.30;72.10;;;;;;5079073;28;20020;-76
2022/08/12 01:40:25;;;;;;;5.70;3.50;;;19.20;72.80;;;;;;5065319;28;20503;-76
2022/08/12 01:42:57;;;;;;;3.85;3.55;;;19.10;73.50;;;;;;5083694;28;20050;-76
2022/08/12 01:45:24;;;;;;;4.13;3.58;;;19.00;74.10;;;;;;5077551;28;20379;-76
2022/08/12 01:48:06;;;;;;;5.18;3.50;;;18.80;74.50;;;;;;5079993;28;20446;-76
2022/08/12 01:50:53;;;;;;;6.55;3.63;;;18.70;75.00;;;;;;5079971;28;20415;-76
2022/08/12 01:53:23;;;;;;;4.38;3.45;;;;;;;;;;5077741;28;20028;-76
2022/08/12 01:55:50;;;;;;;5.65;3.78;;;18.50;75.10;;;;;;5085006;28;20037;-76
2022/08/12 01:59:45;;;;;;;5.75;3.78;;;18.40;76.10;;;;;;5079483;28;20050;-76
2022/08/12 02:01:23;;;;;;;6.80;3.78;;;18.40;76.40;;;;;;5073490;28;20047;-76
2022/08/12 02:13:21;;;;;;;9.65;3.65;;;18.10;78.00;;;;;;5085125;28;20035;-76
2022/08/12 02:16:00;;;;;;;5.50;3.60;;;17.90;78.80;;;;;;5079618;28;20043;-76
2022/08/12 02:18:44;;;;;;;4.75;3.50;;;17.80;79.20;;;;;;5080537;28;20113;-75
2022/08/12 02:21:33;;;;;;;4.85;3.38;;;17.80;79.50;;;;;;5078486;28;20025;-75
2022/08/12 02:23:59;;;;;;;7.75;3.80;;;17.80;79.50;;;;;;5084628;28;20567;-76
2022/08/12 02:26:29;;;;;;;5.28;3.70;;;17.80;79.80;;;;;;5086159;28;20032;-75
2022/08/12 02:28:56;;;;;;;5.25;3.40;;;17.90;79.10;;;;;;5080833;28;20115;-76
2022/08/12 02:31:25;;;;;;;6.18;3.75;;;17.90;78.90;;;;;;5079666;28;20028;-76
2022/08/12 02:33:51;;;;;;;7.28;4.00;;;18.00;80.00;;;;;;5080750;28;20024;-76
2022/08/12 02:36:17;;;;;;;10.73;4.13;;;17.90;80.90;;;;;;5079827;28;20043;-76
2022/08/12 02:38:43;;;;;;;5.93;3.83;;;17.80;81.40;;;;;;5082167;28;20044;-76
2022/08/12 02:41:11;;;;;;;10.48;4.00;;;17.70;81.40;;;;;;5073606;28;20048;-76
2022/08/12 02:43:48;;;;;;;6.28;3.50;;;17.70;81.90;;;;;;5079262;28;20032;-76
2022/08/12 02:46:21;;;;;;;8.82;3.90;;;17.70;82.20;;;;;;5083060;28;20027;-76
2022/08/12 02:49:02;;;;;;;6.63;4.03;;;17.60;82.70;;;;;;5079598;28;20036;-76
2022/08/12 02:51:32;;;;;;;5.95;4.05;;;17.70;82.20;;;;;;5074612;28;20036;-76
2022/08/12 02:54:02;;;;;;;8.02;3.70;;;17.60;82.20;;;;;;5078672;28;20068;-76
2022/08/12 02:56:29;;;;;;;5.10;3.90;;;17.60;82.40;;;;;;5082781;28;20601;-76
2022/08/12 02:58:56;;;;;;;6.40;3.90;;;17.70;82.90;;;;;;5084138;28;20047;-75
2022/08/12 03:01:32;;;;;;;4.15;3.72;;;17.70;82.60;;;;;;5081062;28;20032;-76
2022/08/12 03:04:05;;;;;;;6.07;4.00;;;17.70;84.20;;;;;;5080760;28;20085;-76
2022/08/12 03:06:37;;;;;;;6.90;3.78;;;17.50;85.30;;;;;;5078683;28;20530;-76
2022/08/12 03:09:10;;;;;;;3.70;3.40;;;17.30;86.00;;;;;;5084057;28;20044;-76
2022/08/12 03:11:44;;;;;;;7.85;4.00;;;17.30;86.60;;;;;;5076987;28;20028;-76
2022/08/12 03:14:14;;;;;;;7.50;4.28;;;17.20;86.80;;;;;;5081272;28;20334;-75
2022/08/12 03:16:40;;;;;;;5.50;3.90;;;17.30;86.80;;;;;;5083095;28;20115;-76
2022/08/12 03:19:06;;;;;;;4.25;3.85;;;17.30;86.50;;;;;;5075923;28;20032;-76
2022/08/12 03:21:38;;;;;;;6.53;4.25;;;17.40;87.10;;;;;;5075882;28;20584;-76
2022/08/12 03:24:05;;;;;;;7.15;4.03;;;17.40;86.80;;;;;;5075260;28;20060;-75
2022/08/12 03:26:34;;;;;;;10.02;3.97;;;17.50;86.90;;;;;;5081221;28;20076;-75
2022/08/12 03:29:05;;;;;;;4.97;3.70;;;17.40;86.90;;;;;;5080980;28;20027;-75
2022/08/12 03:31:32;;;;;;;8.10;4.20;;;17.50;86.90;;;;;;5079022;28;20035;-76
2022/08/12 03:34:11;;;;;;;8.93;4.20;;;17.40;86.80;;;;;;5081838;28;20032;-76
2022/08/12 03:36:41;;;;;;;6.10;4.25;;;17.40;87.30;;;;;;5078184;28;20020;-76
2022/08/12 03:42:08;;;;;;;6.07;4.07;;;17.40;87.50;;;;;;5075141;28;20535;-76
2022/08/12 04:01:48;;;;;;;6.95;4.20;;;17.00;90.20;;;;;;5069928;28;20322;-76
2022/08/12 04:04:15;;;;;;;5.38;4.30;;;16.90;90.40;;;;;;5080685;28;20056;-76
2022/08/12 04:06:45;;;;;;;6.22;3.60;;;16.80;90.80;;;;;;5078820;28;20029;-75
2022/08/12 04:09:12;;;;;;;4.95;4.05;;;16.60;91.40;;;;;;5077121;28;20060;-75
2022/08/12 04:14:26;;;;;;;6.10;4.00;;;16.50;91.90;;;;;;5083186;28;20046;-76
2022/08/12 04:16:52;;;;;;;7.43;3.78;;;16.50;92.20;;;;;;5076643;28;20528;-76
2022/08/12 04:19:19;;;;;;;6.47;3.80;;;16.50;92.20;;;;;;5077989;28;20510;-76
2022/08/12 04:21:45;;;;;;;5.88;3.58;;;16.50;92.50;;;;;;5075208;28;20136;-75
2022/08/12 04:24:11;;;;;;;4.90;4.10;;;16.30;92.90;;;;;;5077806;28;20035;-75
2022/08/12 04:26:40;;;;;;;5.85;4.45;;;16.20;93.30;;;;;;5083894;28;20023;-76
2022/08/12 04:29:09;;;;;;;5.15;4.40;;;16.10;93.90;;;;;;5084612;28;20051;-75
2022/08/12 04:31:42;;;;;;;5.55;4.22;;;16.20;93.70;;;;;;5080402;28;20177;-75
2022/08/12 04:34:11;;;;;;;6.22;4.13;;;16.20;93.90;;;;;;5076310;28;20028;-75
2022/08/12 04:36:39;;;;;;;6.85;4.18;;;16.30;93.90;;;;;;5080096;28;20029;-75
2022/08/12 04:39:06;;;;;;;8.65;4.38;;;16.30;94.20;;;;;;5083087;28;20438;-75
2022/08/12 04:41:33;;;;;;;6.00;4.30;;;16.30;94.40;;;;;;5078493;28;20039;-75
2022/08/12 04:43:59;;;;;;;7.38;4.07;;;16.30;94.50;;;;;;5079607;28;20024;-75
2022/08/12 04:46:25;;;;;;;8.88;4.22;;;16.30;94.70;;;;;;5083059;28;20024;-75
2022/08/12 04:48:52;;;;;;;6.10;4.22;;;16.40;94.60;;;;;;5080519;28;20019;-75
2022/08/12 04:51:19;;;;;;;5.57;3.97;;;16.50;94.50;;;;;;5078363;28;20032;-75
2022/08/12 04:53:47;;;;;;;11.60;4.00;;;16.50;94.50;;;;;;5080475;28;20388;-75
2022/08/12 04:56:14;;;;;;;5.53;3.70;;;16.50;94.50;;;;;;5081508;28;20036;-75
2022/08/12 04:58:40;;;;;;;8.85;4.18;;;16.50;94.60;;;;;;5081666;28;20031;-75
2022/08/12 05:01:07;;;;;;;7.78;4.50;;;16.50;94.50;;;;;;5075670;28;20039;-75
2022/08/12 05:03:39;;;;;;;9.10;4.80;;;16.60;94.40;;;;;;5071603;28;20364;-75
2022/08/12 05:06:07;;;;;;;6.75;4.53;;;16.60;94.10;;;;;;5082468;28;20084;-75
2022/08/12 05:08:33;;;;;;;5.85;4.50;;;16.80;93.90;;;;;;5083861;28;20027;-75
2022/08/12 05:11:00;;;;;;;6.10;4.80;;;16.80;94.00;;;;;;5076900;28;20056;-75
2022/08/12 05:13:30;;;;;;;10.25;4.60;;;16.90;93.80;;;;;;5083217;28;20032;-75
2022/08/12 05:15:56;;;;;;;8.23;4.80;;;17.00;93.70;;;;;;5084787;28;20024;-75
2022/08/12 05:18:21;;;;;;;8.27;4.88;;;17.10;93.50;;;;;;5079854;28;20028;-75
2022/08/12 05:20:47;;;;;;;9.75;4.75;;;17.10;93.30;;;;;;5080806;28;20039;-75
2022/08/12 05:23:16;;;;;;;8.63;4.47;;;17.20;93.20;;;;;;5078060;28;20051;-75
2022/08/12 05:25:44;;;;;;;6.00;4.47;;;17.30;93.20;;;;;;5076781;28;20103;-75
2022/08/12 05:28:11;;;;;;;9.02;4.63;;;17.30;93.10;;;;;;5080346;28;20047;-75
2022/08/12 05:30:38;;;;;;;10.00;4.40;;;17.40;93.00;;;;;;5080107;28;20028;-75
2022/08/12 05:33:05;;;;;;;7.80;4.70;;;17.40;92.90;;;;;;5081497;28;20113;-75
2022/08/12 05:35:40;;;;;;;7.32;4.47;;;17.40;92.90;;;;;;5082985;28;20184;-75
2022/08/12 05:40:52;;;;;;;7.80;5.25;;;17.50;93.40;;;;;;5075100;28;20430;-75
2022/08/12 05:43:19;;;;;;;5.88;4.90;;;17.50;95.40;;;;;;5083966;28;20024;-75
2022/08/12 05:45:45;;;;;;;7.18;4.97;;;17.50;95.80;;;;;;5082489;28;20596;-75
2022/08/12 05:48:12;;;;;;;8.75;5.50;;;17.40;96.20;;;;;;5085476;28;20024;-75
2022/08/12 05:50:38;;;;;;;11.18;5.72;;;17.40;95.90;;;;;;5080411;28;20680;-76
2022/08/12 05:53:05;;;;;;;9.73;5.40;;;17.40;95.60;;;;;;5081839;28;20739;-75
2022/08/12 05:55:32;;;;;;;7.05;5.05;;;17.40;96.00;;;;;;5077975;28;20055;-75
2022/08/12 05:57:58;;;;;;;7.82;5.57;;;17.40;95.80;;;;;;5077037;28;20040;-75
2022/08/12 06:00:25;;;;;;;9.57;5.43;;;17.40;96.10;;;;;;5081782;28;20376;-73
2022/08/12 06:03:00;;;;;;;9.52;5.78;;;17.40;96.00;;;;;;5072620;28;20408;-72
2022/08/12 06:05:27;;;;;;;9.15;5.70;;;17.40;96.30;;;;;;5082318;28;20020;-72
2022/08/12 06:07:56;;;;;;;6.80;5.20;;;17.50;96.20;;;;;;5076711;28;20036;-73
2022/08/12 06:10:22;;;;;;;8.07;5.13;;;17.50;95.90;;;;;;5079285;28;20447;-72
2022/08/12 06:12:48;;;;;;;8.32;5.22;;;17.50;95.00;;;;;;5081672;28;20032;-72
2022/08/12 06:15:19;;;;;;;9.32;5.10;;;17.50;94.50;;;;;;5089893;28;20058;-72
2022/08/12 06:17:45;;;;;;;6.40;5.03;;;17.60;94.40;;;;;;5088269;28;20207;-72
2022/08/12 06:20:15;;;;;;;7.30;4.80;;;17.70;94.50;;;;;;5079605;28;20035;-72
2022/08/12 06:22:42;;;;;;;13.60;5.50;;;17.70;94.30;;;;;;5075973;28;20607;-72
2022/08/12 06:25:08;;;;;;;9.55;5.20;;;17.70;94.50;;;;;;5069106;28;20063;-72
2022/08/12 06:27:47;;;;;;;6.88;4.70;;;17.80;94.50;;;;;;5078792;28;20476;-73
2022/08/12 06:30:18;;;;;;;8.27;5.47;;;17.80;94.90;;;;;;5074040;28;20111;-72
2022/08/12 06:32:46;;;;;;;6.93;4.50;;;17.90;94.90;;;;;;5087018;28;20028;-73
2022/08/12 06:35:12;;;;;;;5.75;4.95;;;17.90;94.80;;;;;;5078338;28;20025;-72
2022/08/12 06:37:40;;;;;;;7.45;4.75;;;18.00;94.90;;;;;;5088676;28;20059;-73
2022/08/12 06:40:09;;;;;;;6.65;4.80;;;18.00;94.70;;;;;;5086642;28;20052;-72
2022/08/12 06:42:47;;;;;;;9.75;5.22;;;18.10;94.70;;;;;;5075448;28;20055;-73
2022/08/12 06:45:19;;;;;;;6.03;5.20;;;18.10;94.50;;;;;;5068727;28;20028;-73
2022/08/12 06:47:45;;;;;;;9.95;5.13;;;18.20;94.70;;;;;;5068363;28;20025;-73
2022/08/12 06:50:17;;;;;;;6.97;4.90;;;18.30;94.70;;;;;;5070375;28;20536;-73
2022/08/12 06:52:46;;;;;;;8.20;4.72;;;18.50;94.40;;;;;;5076037;28;20036;-73
2022/08/12 06:55:17;;;;;;;6.10;4.32;;;18.80;94.50;;;;;;5082417;28;20028;-73
2022/08/12 06:57:54;;;;;;;7.07;5.07;;;19.00;93.80;;;;;;5088642;28;20250;-73
2022/08/12 07:00:27;;;;;;;7.65;4.30;;;19.40;93.30;;;;;;5086496;28;20020;-73
2022/08/12 07:02:55;;;;;;;5.87;4.80;;;19.80;93.70;;;;;;5087831;28;20032;-73
2022/08/12 07:05:25;;;;;;;6.30;4.30;;;20.10;91.80;;;;;;5083181;28;20298;-73
2022/08/12 07:08:04;;;;;;;7.65;4.75;;;20.40;91.50;;;;;;5068907;28;20443;-73
2022/08/12 07:10:31;;;;;;;6.88;4.50;;;20.70;90.30;;;;;;5067533;28;20400;-73
2022/08/12 07:13:00;;;;;;;5.88;4.75;;;21.10;89.00;;;;;;5084412;28;20036;-73
2022/08/12 07:15:28;;;;;;;8.35;4.85;;;21.40;87.60;;;;;;5087874;28;20020;-73
2022/08/12 07:18:14;;;;;;;11.73;4.78;;;21.60;86.30;;;;;;5088208;28;20107;-72
2022/08/12 07:20:43;;;;;;;10.65;4.70;;;21.80;85.30;;;;;;5081497;28;20328;-72
2022/08/12 07:23:09;;;;;;;8.52;5.20;;;22.10;84.50;;;;;;5080062;28;20032;-73
2022/08/12 07:25:36;;;;;;;9.57;4.50;;;22.20;83.00;;;;;;5086841;28;20085;-72
2022/08/12 07:28:07;;;;;;;7.93;4.78;;;22.40;82.90;;;;;;5086213;28;20044;-72
2022/08/12 07:30:36;;;;;;;8.13;4.60;;;22.50;80.70;;;;;;5085531;28;20031;-72
2022/08/12 07:33:03;;;;;;;9.88;4.20;;;22.70;80.30;;;;;;5083395;28;20021;-72
2022/08/12 07:35:31;;;;;;;9.55;4.55;;;22.90;80.50;;;;;;5087975;28;20024;-72
2022/08/12 07:37:58;;;;;;;7.95;4.45;;;23.10;79.20;;;;;;5087922;28;20089;-73
2022/08/12 07:40:25;;;;;;;5.32;3.65;;;23.40;77.90;;;;;;5085030;28;20490;-72
2022/08/12 07:42:51;;;;;;;6.25;3.53;;;23.60;77.30;;;;;;5072531;28;20025;-73
2022/08/12 07:45:19;;;;;;;4.97;3.50;;;23.80;78.20;;;;;;5082276;28;20028;-73
2022/08/12 07:47:46;;;;;;;11.77;3.70;;;24.10;77.10;;;;;;5081497;28;20480;-73
2022/08/12 07:50:15;;;;;;;5.88;3.00;;;24.30;76.00;;;;;;5065604;28;20323;-73
2022/08/12 07:52:45;;;;;;;9.63;3.10;;;24.50;75.50;;;;;;5067260;28;20035;-73
2022/08/12 07:55:12;;;;;;;3.60;2.80;;;24.70;72.10;;;;;;5079886;28;20034;-73
2022/08/12 07:57:49;;;;;;;5.82;2.50;;;24.80;69.40;;;;;;5085843;28;20077;-73
2022/08/12 08:00:15;;;;;;;7.65;2.53;;;24.90;66.60;;;;;;5078568;28;20038;-73
2022/08/12 08:02:41;;;;;;;17.77;3.30;;;25.00;66.40;;;;;;5077503;28;20115;-73
2022/08/12 08:05:07;;;;;;;4.95;2.42;;;25.10;65.50;;;;;;5087034;28;20447;-73
2022/08/12 08:07:33;;;;;;;8.35;2.42;;;25.10;65.00;;;;;;5083892;28;20042;-74
2022/08/12 08:10:01;;;;;;;6.57;2.25;;;25.20;65.30;;;;;;5083700;28;20298;-73
2022/08/12 08:15:13;;;;;;;7.10;2.50;;;25.20;66.30;;;;;;5069514;28;20031;-73
2022/08/12 08:17:39;;;;;;;7.55;2.30;;;25.30;65.10;;;;;;5085837;28;20043;-74
2022/08/12 08:20:08;;;;;;;5.07;2.33;;;25.40;64.40;;;;;;5079564;28;20047;-73
2022/08/12 08:22:37;;;;;;;4.22;2.53;;;25.40;64.20;;;;;;5084221;28;20028;-73
2022/08/12 08:25:05;;;;;;;4.25;2.58;;;25.60;64.20;;;;;;5086701;28;20036;-73
2022/08/12 08:27:45;;;;;;;5.53;2.40;;;25.70;62.90;;;;;;5076494;28;20408;-73
2022/08/12 08:30:12;;;;;;;2.85;2.28;;;25.80;62.50;;;;;;5074432;28;20036;-73
2022/08/12 08:32:39;;;;;;;3.08;2.00;;;25.90;62.00;;;;;;5070927;28;20434;-72
2022/08/12 08:35:07;;;;;;;2.97;2.03;;;26.00;61.80;;;;;;5067358;28;20021;-72
2022/08/12 08:37:33;;;;;;;5.07;2.03;;;26.10;60.40;;;;;;5077866;28;20013;-72
2022/08/12 08:42:35;;;;;;;3.53;1.70;;;26.30;59.60;;;;;;5086228;28;20035;-72
2022/08/12 08:42:45;;;;;;;4.18;1.80;;;26.50;58.90;;;;;;5086666;28;20077;-73
2022/08/12 08:45:14;;;;;;;5.05;1.80;;;26.50;57.80;;;;;;5075440;28;20102;-73
2022/08/12 08:47:48;;;;;;;3.42;1.70;;;26.50;58.00;;;;;;5068624;28;20027;-73
2022/08/12 08:50:14;;;;;;;2.55;1.75;;;26.50;56.80;;;;;;5082768;28;20030;-73
2022/08/12 08:52:41;;;;;;;3.25;1.58;;;26.50;56.50;;;;;;5074477;28;20088;-73
2022/08/12 08:55:16;;;;;;;2.63;1.65;;;26.50;55.30;;;;;;5077336;28;20081;-73
2022/08/12 08:57:43;;;;;;;2.15;1.58;;;26.50;55.70;;;;;;5075383;28;20020;-73
2022/08/12 09:00:18;;;;;;;4.90;1.70;;;26.50;55.60;;;;;;5064577;28;20488;-72
2022/08/12 09:02:47;;;;;;;3.72;1.70;;;26.40;56.20;;;;;;5066387;28;20028;-73
2022/08/12 09:05:13;;;;;;;8.63;1.65;;;26.30;55.70;;;;;;5066289;28;20511;-72
2022/08/12 09:07:43;;;;;;;3.85;1.60;;;26.20;55.00;;;;;;5080027;28;20103;-72
2022/08/12 09:10:10;;;;;;;4.97;1.73;;;26.30;56.70;;;;;;5074705;28;20407;-72
2022/08/12 09:15:20;;;;;;;6.45;1.80;;;26.30;54.20;;;;;;5069085;28;20101;-73
2022/08/12 09:17:56;;;;;;;2.25;1.40;;;26.30;55.10;;;;;;5066241;28;20027;-73
2022/08/12 09:20:33;;;;;;;5.22;1.95;;;26.50;53.50;;;;;;5079897;28;20365;-73
2022/08/12 09:23:00;;;;;;;2.88;1.58;;;26.50;54.30;;;;;;5075416;28;20027;-73
2022/08/12 09:25:26;;;;;;;6.60;1.60;;;26.40;54.50;;;;;;5071872;28;20093;-73
2022/08/12 09:27:55;;;;;;;4.97;1.50;;;26.50;53.30;;;;;;5067303;28;20024;-73
2022/08/12 09:30:21;;;;;;;3.00;1.40;;;26.60;52.30;;;;;;5083016;28;20051;-73
2022/08/12 09:32:49;;;;;;;3.25;1.42;;;26.70;51.20;;;;;;5086053;28;20032;-73
2022/08/12 09:35:18;;;;;;;3.58;1.50;;;26.70;50.50;;;;;;5087964;28;20031;-73
2022/08/12 09:37:45;;;;;;;2.95;1.35;;;26.80;51.30;;;;;;5076011;28;20097;-73
2022/08/12 09:40:12;;;;;;;3.85;1.40;;;26.70;50.60;;;;;;5075304;28;20332;-73
2022/08/12 09:45:22;;;;;;;3.50;1.33;;;26.50;49.80;;;;;;5075077;28;20039;-73
2022/08/12 09:47:49;;;;;;;3.15;1.30;;;26.60;49.90;;;;;;5090041;28;20024;-73
2022/08/12 09:50:16;;;;;;;2.53;1.40;;;26.80;49.40;;;;;;5078707;28;20484;-73
2022/08/12 09:52:44;;;;;;;4.80;1.50;;;27.00;48.90;;;;;;5089511;28;20403;-72
2022/08/12 09:55:13;;;;;;;1.35;1.20;;;26.90;48.60;;;;;;5089740;28;20439;-72
2022/08/12 09:57:38;;;;;;;3.83;1.50;;;26.80;48.80;;;;;;5085213;28;20061;-73
2022/08/12 10:00:08;;;;;;;1.77;1.25;;;26.80;48.90;;;;;;5081140;28;20498;-73
2022/08/12 10:02:37;;;;;;;2.28;1.30;;;26.90;48.20;;;;;;5075794;28;20055;-73
2022/08/12 10:05:04;;;;;;;6.90;1.52;;;27.10;49.70;;;;;;5089177;28;20108;-73
2022/08/12 10:07:30;;;;;;;5.97;1.40;;;27.10;49.30;;;;;;5082198;28;20067;-73
2022/08/12 10:09:56;;;;;;;4.63;1.20;;;27.10;50.30;;;;;;5071065;28;20028;-73
2022/08/12 10:15:06;;;;;;;3.22;1.35;;;27.30;49.70;;;;;;5088701;28;20032;-73
2022/08/12 10:17:31;;;;;;;5.82;1.50;;;27.30;50.10;;;;;;5078138;28;20025;-73
2022/08/12 10:19:57;;;;;;;5.95;1.40;;;27.30;49.70;;;;;;5079084;28;20376;-72
2022/08/12 10:22:22;;;;;;;2.95;1.52;;;27.20;49.30;;;;;;5086525;28;20056;-73
2022/08/12 10:29:35;;;;;;;5.18;1.38;;;27.30;48.90;;;;;;5089298;28;20470;-73
2022/08/12 10:30:19;;;;;;;3.45;1.38;;;27.40;48.70;;;;;;5071032;28;20105;-73
2022/08/12 10:32:57;;;;;;;3.45;1.25;;;27.40;47.90;;;;;;5088670;28;20498;-72
2022/08/12 10:35:24;;;;;;;10.38;1.65;;;27.20;48.60;;;;;;5088101;28;20296;-73
2022/08/12 10:37:50;;;;;;;2.85;1.30;;;27.20;48.30;;;;;;5088967;28;20031;-73
2022/08/12 10:40:15;;;;;;;4.25;1.30;;;27.20;48.80;;;;;;5075837;28;20045;-73
2022/08/12 10:45:25;;;;;;;8.32;1.15;;;27.40;46.50;;;;;;5088245;28;20497;-72
2022/08/12 10:47:52;;;;;;;1.05;1.00;;;27.40;46.70;;;;;;5082005;28;20103;-73
2022/08/12 10:50:20;;;;;;;3.28;1.20;;;27.40;46.60;;;;;;5068768;28;20025;-73
2022/08/12 10:52:48;;;;;;;4.70;1.10;;;27.40;45.90;;;;;;5070786;28;20021;-73
2022/08/12 10:55:15;;;;;;;3.05;1.35;;;27.50;46.40;;;;;;5080872;28;20329;-73
2022/08/12 10:57:40;;;;;;;1.95;1.40;;;27.60;46.60;;;;;;5068692;28;20071;-73
2022/08/12 11:00:07;;;;;;;1.85;1.40;;;27.70;47.00;;;;;;5066426;28;20044;-73
2022/08/12 11:02:32;;;;;;;2.22;1.05;;;27.80;46.40;;;;;;5068630;28;20023;-73
2022/08/12 11:04:58;;;;;;;1.70;1.10;;;28.00;45.40;;;;;;5072744;28;20224;-73
2022/08/12 11:07:25;;;;;;;4.15;1.50;;;28.20;46.30;;;;;;5077934;28;20028;-73
2022/08/12 11:09:51;;;;;;;2.35;1.20;;;28.40;46.10;;;;;;5079763;28;20024;-73
2022/08/12 11:12:17;;;;;;;3.08;1.33;;;28.50;45.20;;;;;;5075220;28;20078;-72
2022/08/12 11:14:43;;;;;;;5.45;1.58;;;28.50;45.70;;;;;;5081168;28;20028;-73
2022/08/12 11:17:14;;;;;;;2.33;1.27;;;28.70;46.20;;;;;;5074534;28;20060;-73
2022/08/12 11:19:42;;;;;;;2.55;1.23;;;28.90;45.50;;;;;;5068060;28;20103;-73
2022/08/12 11:22:09;;;;;;;5.97;1.20;;;28.90;45.00;;;;;;5078942;28;20516;-73
2022/08/12 11:24:35;;;;;;;1.95;1.10;;;28.90;45.30;;;;;;5083195;28;20087;-73
2022/08/12 11:27:05;;;;;;;3.83;1.42;;;28.50;45.30;;;;;;5080845;28;20507;-73
2022/08/12 11:29:31;;;;;;;3.08;1.40;;;28.30;45.60;;;;;;5087843;28;20020;-73
2022/08/12 11:31:56;;;;;;;3.90;1.50;;;28.20;46.40;;;;;;5086370;28;20032;-73
2022/08/12 11:34:22;;;;;;;3.78;1.48;;;28.20;46.80;;;;;;5088337;28;20039;-73
2022/08/12 11:36:52;;;;;;;3.70;1.20;;;28.10;46.30;;;;;;5087606;28;20032;-73
2022/08/12 11:39:18;;;;;;;10.50;1.40;;;28.00;46.40;;;;;;5070330;28;20529;-73
2022/08/12 11:41:44;;;;;;;4.03;1.30;;;28.10;47.10;;;;;;5080972;28;20028;-73
2022/08/12 11:44:10;;;;;;;5.68;1.27;;;28.30;46.70;;;;;;5070761;28;20384;-73
2022/08/12 11:46:37;;;;;;;7.35;1.33;;;28.40;46.70;;;;;;5088021;28;20020;-73
2022/08/12 11:49:04;;;;;;;4.55;1.20;;;28.50;46.30;;;;;;5074792;28;20032;-73
2022/08/12 11:51:30;;;;;;;5.18;1.20;;;28.40;45.90;;;;;;5068899;28;20054;-73
2022/08/12 11:53:56;;;;;;;6.45;1.75;;;28.10;45.50;;;;;;5087674;28;20070;-73
2022/08/12 11:56:22;;;;;;;3.40;1.23;;;28.10;46.10;;;;;;5077262;28;20331;-73
2022/08/12 11:58:48;;;;;;;1.30;1.15;;;28.00;45.60;;;;;;5077140;28;20044;-73
2022/08/12 12:01:13;;;;;;;5.38;1.20;;;28.00;46.00;;;;;;5069479;28;20051;-73
2022/08/12 12:03:39;;;;;;;6.82;1.33;;;28.00;46.00;;;;;;5087507;28;20028;-73
2022/08/12 12:06:05;;;;;;;4.63;1.20;;;28.00;45.60;;;;;;5087281;28;20468;-73
2022/08/12 12:08:31;;;;;;;7.57;1.30;;;28.30;44.60;;;;;;5074949;28;20055;-73
2022/08/12 12:10:56;;;;;;;4.57;1.20;;;28.40;45.00;;;;;;5066763;28;20029;-72
2022/08/12 12:13:23;;;;;;;5.38;1.20;;;28.50;45.50;;;;;;5073423;28;20423;-73
2022/08/12 12:15:48;;;;;;;5.75;1.10;;;28.50;44.80;;;;;;5081523;28;20024;-72
2022/08/12 12:18:28;;;;;;;3.60;1.15;;;28.60;44.10;;;;;;5070656;28;20375;-73
2022/08/12 12:20:56;;;;;;;5.93;1.10;;;28.80;44.50;;;;;;5077674;28;20449;-72
2022/08/12 12:23:22;;;;;;;8.82;1.13;;;28.80;44.40;;;;;;5081515;28;20480;-72
2022/08/12 12:25:48;;;;;;;4.47;0.93;;;28.70;44.60;;;;;;5086879;28;20431;-73
2022/08/12 12:28:15;;;;;;;3.00;1.00;;;28.60;44.40;;;;;;5084601;28;20073;-73
2022/08/12 12:30:42;;;;;;;2.28;0.90;;;28.70;44.40;;;;;;5079492;28;20024;-73
2022/08/12 12:33:09;;;;;;;4.18;0.90;;;28.80;43.30;;;;;;5068546;28;20491;-73
2022/08/12 12:35:35;;;;;;;4.55;0.80;;;29.10;43.80;;;;;;5073610;28;20035;-73
2022/08/12 12:38:03;;;;;;;5.38;0.90;;;29.10;43.90;;;;;;5081645;28;20103;-73
2022/08/12 12:40:30;;;;;;;0.80;0.70;;;29.20;43.90;;;;;;5065439;28;20451;-73
2022/08/12 12:42:56;;;;;;;2.75;0.77;;;29.40;43.40;;;;;;5075961;28;20024;-73
2022/08/12 12:45:22;;;;;;;5.18;0.80;;;29.40;43.20;;;;;;5086764;28;20523;-73
2022/08/12 12:47:57;;;;;;;5.30;0.90;;;29.60;43.10;;;;;;5086539;28;20111;-73
2022/08/12 12:50:24;;;;;;;0.80;0.63;;;29.80;42.80;;;;;;5075462;28;20557;-73
2022/08/12 12:52:50;;;;;;;2.58;0.70;;;29.80;42.00;;;;;;5075245;28;20030;-73
2022/08/12 12:55:16;;;;;;;4.53;0.70;;;29.80;42.10;;;;;;5076961;28;20024;-73
2022/08/12 12:57:42;;;;;;;2.60;0.70;;;29.60;42.80;;;;;;5066481;28;20086;-73
2022/08/12 13:00:16;;;;;;;2.00;0.70;;;29.50;41.90;;;;;;5066594;28;20028;-73
2022/08/12 13:02:55;;;;;;;4.30;0.80;;;29.50;41.10;;;;;;5082373;28;20107;-73
2022/08/12 13:05:23;;;;;;;2.47;0.80;;;29.50;42.30;;;;;;5076636;28;20683;-72
2022/08/12 13:07:49;;;;;;;7.47;1.30;;;29.50;42.50;;;;;;5072411;28;20023;-73
2022/08/12 13:10:14;;;;;;;9.57;1.00;;;29.30;43.30;;;;;;5082657;28;20020;-74
2022/08/12 13:12:41;;;;;;;5.50;1.00;;;29.10;43.20;;;;;;5079458;28;20066;-73
2022/08/12 13:15:11;;;;;;;2.05;0.90;;;29.10;43.50;;;;;;5091119;28;20059;-73
2022/08/12 13:17:36;;;;;;;6.60;0.93;;;29.20;43.40;;;;;;5091347;28;20024;-73
2022/08/12 13:20:04;;;;;;;5.97;0.80;;;29.20;43.10;;;;;;5080065;28;20501;-72
2022/08/12 13:22:31;;;;;;;4.28;0.88;;;29.10;43.10;;;;;;5075317;28;20025;-73
2022/08/12 13:24:58;;;;;;;4.65;0.88;;;29.00;43.90;;;;;;5071649;28;20028;-72
2022/08/12 13:27:44;;;;;;;2.47;0.90;;;28.90;44.00;;;;;;5083249;28;20182;-73
2022/08/12 13:30:24;;;;;;;1.65;0.70;;;28.90;44.50;;;;;;5089020;28;20024;-72
2022/08/12 13:32:54;;;;;;;6.07;0.70;;;29.00;44.20;;;;;;5085778;28;20024;-73
2022/08/12 13:35:20;;;;;;;4.32;0.75;;;29.10;44.00;;;;;;5075780;28;20426;-72
2022/08/12 13:37:53;;;;;;;5.38;0.90;;;29.30;43.40;;;;;;5078599;28;20013;-73
2022/08/12 13:40:19;;;;;;;;;;;29.60;43.90;;;;;;5079379;28;20083;-73
2022/08/12 13:42:47;;;;;;;3.05;0.80;;;29.90;43.60;;;;;;5089916;28;20328;-73
2022/08/12 13:45:14;;;;;;;1.65;0.70;;;30.20;42.10;;;;;;5090126;28;20073;-73
2022/08/12 13:48:03;;;;;;;1.63;0.82;;;30.20;41.10;;;;;;5090350;28;20035;-73
2022/08/12 13:50:32;;;;;;;4.82;0.73;;;30.20;40.80;;;;;;5086300;28;20024;-73
2022/08/12 13:53:04;;;;;;;4.95;0.70;;;30.20;41.90;;;;;;5080258;28;20036;-73
2022/08/12 13:55:30;;;;;;;2.97;0.50;;;29.90;42.30;;;;;;5074716;28;20392;-73
2022/08/12 13:57:57;;;;;;;3.05;0.70;;;29.80;42.20;;;;;;5089053;28;20482;-72
2022/08/12 14:00:25;;;;;;;9.30;0.80;;;29.90;42.10;;;;;;5087251;28;20105;-73
2022/08/12 14:02:51;;;;;;;3.80;0.80;;;29.90;42.40;;;;;;5084995;28;20052;-73
2022/08/12 14:05:18;;;;;;;2.15;0.50;;;29.80;42.30;;;;;;5069645;28;20525;-73
2022/08/12 14:08:00;;;;;;;2.00;0.70;;;29.70;42.20;;;;;;5068781;28;20028;-73
2022/08/12 14:10:35;;;;;;;3.97;0.50;;;29.70;41.90;;;;;;5084187;28;20028;-73
2022/08/12 14:13:15;;;;;;;3.58;0.60;;;29.60;42.50;;;;;;5078383;28;20515;-72
2022/08/12 14:15:45;;;;;;;3.70;0.55;;;29.30;41.70;;;;;;5088310;28;20024;-72
2022/08/12 14:18:16;;;;;;;1.13;0.50;;;28.80;41.60;;;;;;5084293;28;20487;-72
2022/08/12 14:20:44;;;;;;;3.95;0.73;;;28.80;42.30;;;;;;5081361;28;20036;-73
2022/08/12 14:23:11;;;;;;;1.88;0.52;;;28.80;41.50;;;;;;4374947;28;10021681;-74
2022/08/12 14:25:38;;;;;;;4.88;0.50;;;28.70;42.10;;;;;;5046595;28;20036;-74
2022/08/12 14:28:10;;;;;;;0.93;0.30;;;28.70;41.30;;;;;;5071058;28;20226;-74
2022/08/12 14:30:53;;;;;;;0.82;0.43;;;28.90;42.10;;;;;;5054480;28;20064;-74
2022/08/12 14:33:35;;;;;;;3.28;0.60;;;;;;;;;;5056040;28;20638;-73
2022/08/12 14:36:10;;;;;;;1.27;0.45;;;28.80;41.40;;;;;;5070511;28;20384;-74
2022/08/12 14:38:40;;;;;;;1.65;0.50;;;28.90;41.90;;;;;;5069551;28;20035;-74
2022/08/12 14:41:08;;;;;;;2.15;0.35;;;29.10;41.60;;;;;;5056354;28;20580;-74
2022/08/12 14:43:37;;;;;;;0.88;0.50;;;29.40;41.00;;;;;;5058258;28;20032;-73